sensor_id;sensor_type;location;lat;lon;timestamp;temperature;humidity
13389;DHT22;6764;53.250;10.410;2023-06-26T09:07:25;39.50;56.90
13389;DHT22;6764;53.250;10.410;2023-06-26T09:09:51;39.90;56.90
13389;DHT22;6764;53.250;10.410;2023-06-26T09:12:17;40.80;55.30
13389;DHT22;6764;53.250;10.410;2023-06-26T09:14:42;40.80;55.70
13389;DHT22;6764;53.250;10.410;2023-06-26T09:17:08;41.50;54.60
13389;DHT22;6764;53.250;10.410;2023-06-26T09:19:37;41.60;54.90
13389;DHT22;6764;53.250;10.410;2023-06-26T09:22:02;41.70;55.10
13389;DHT22;6764;53.250;10.410;2023-06-26T09:24:28;41.30;55.20
13389;DHT22;6764;53.250;10.410;2023-06-26T09:26:55;40.30;55.90
13389;DHT22;6764;53.250;10.410;2023-06-26T09:29:21;39.60;57.60
13389;DHT22;6764;53.250;10.410;2023-06-26T09:31:47;38.90;57.80
13389;DHT22;6764;53.250;10.410;2023-06-26T09:34:13;38.50;58.70
13389;DHT22;6764;53.250;10.410;2023-06-26T09:36:38;38.60;58.60
13389;DHT22;6764;53.250;10.410;2023-06-26T09:39:07;38.30;58.90
13389;DHT22;6764;53.250;10.410;2023-06-26T09:41:36;38.90;58.40
13389;DHT22;6764;53.250;10.410;2023-06-26T09:44:06;39.80;58.10
13389;DHT22;6764;53.250;10.410;2023-06-26T09:46:33;39.50;57.80
13389;DHT22;6764;53.250;10.410;2023-06-26T09:49:05;39.30;57.40
13389;DHT22;6764;53.250;10.410;2023-06-26T09:51:35;39.10;58.00
13389;DHT22;6764;53.250;10.410;2023-06-26T09:54:02;39.10;57.90
13389;DHT22;6764;53.250;10.410;2023-06-26T09:56:29;39.10;58.70
13389;DHT22;6764;53.250;10.410;2023-06-26T09:59:01;38.30;60.10
13389;DHT22;6764;53.250;10.410;2023-06-26T10:01:27;38.20;60.80
13389;DHT22;6764;53.250;10.410;2023-06-26T10:03:56;38.00;61.40
13389;DHT22;6764;53.250;10.410;2023-06-26T10:06:27;37.10;62.60
13389;DHT22;6764;53.250;10.410;2023-06-26T10:08:56;36.30;64.00
13389;DHT22;6764;53.250;10.410;2023-06-26T10:11:22;35.30;67.30
13389;DHT22;6764;53.250;10.410;2023-06-26T10:13:51;35.10;68.30
13389;DHT22;6764;53.250;10.410;2023-06-26T10:16:25;35.40;68.40
13389;DHT22;6764;53.250;10.410;2023-06-26T10:18:53;35.50;68.10
13389;DHT22;6764;53.250;10.410;2023-06-26T10:21:23;35.20;68.00
13389;DHT22;6764;53.250;10.410;2023-06-26T10:23:50;34.60;69.10
13389;DHT22;6764;53.250;10.410;2023-06-26T10:26:16;34.50;70.10
13389;DHT22;6764;53.250;10.410;2023-06-26T10:28:44;34.60;69.50
13389;DHT22;6764;53.250;10.410;2023-06-26T10:31:11;34.80;68.80
13389;DHT22;6764;53.250;10.410;2023-06-26T10:33:38;34.60;69.20
13389;DHT22;6764;53.250;10.410;2023-06-26T10:36:14;34.40;69.90
13389;DHT22;6764;53.250;10.410;2023-06-26T10:38:54;34.00;71.00
13389;DHT22;6764;53.250;10.410;2023-06-26T10:41:24;32.90;73.70
13389;DHT22;6764;53.250;10.410;2023-06-26T10:43:54;32.40;75.50
13389;DHT22;6764;53.250;10.410;2023-06-26T10:46:55;32.00;76.50
13389;DHT22;6764;53.250;10.410;2023-06-26T10:49:20;31.30;78.70
13389;DHT22;6764;53.250;10.410;2023-06-26T10:51:50;30.50;83.80
13389;DHT22;6764;53.250;10.410;2023-06-26T10:54:16;29.50;92.10
13389;DHT22;6764;53.250;10.410;2023-06-26T11:01:45;26.50;99.90
13389;DHT22;6764;53.250;10.410;2023-06-26T11:04:13;25.90;99.90
13389;DHT22;6764;53.250;10.410;2023-06-26T11:06:41;25.50;99.90
13389;DHT22;6764;53.250;10.410;2023-06-26T11:09:18;25.30;99.90
13389;DHT22;6764;53.250;10.410;2023-06-26T11:14:18;24.60;99.90
13389;DHT22;6764;53.250;10.410;2023-06-26T11:16:44;24.40;99.90
13389;DHT22;6764;53.250;10.410;2023-06-26T11:19:10;24.30;99.90
13389;DHT22;6764;53.250;10.410;2023-06-26T11:21:39;24.10;99.90
13389;DHT22;6764;53.250;10.410;2023-06-26T11:24:09;23.80;99.90
13389;DHT22;6764;53.250;10.410;2023-06-26T11:26:39;23.80;99.90
13389;DHT22;6764;53.250;10.410;2023-06-26T11:29:05;23.90;99.90
13389;DHT22;6764;53.250;10.410;2023-06-26T11:31:33;23.90;99.90
13389;DHT22;6764;53.250;10.410;2023-06-26T11:34:05;23.70;99.90
13389;DHT22;6764;53.250;10.410;2023-06-26T11:36:31;23.70;99.90
13389;DHT22;6764;53.250;10.410;2023-06-26T11:38:57;23.80;99.90
13389;DHT22;6764;53.250;10.410;2023-06-26T11:41:25;24.10;99.90
13389;DHT22;6764;53.250;10.410;2023-06-26T11:43:52;24.50;99.90
13389;DHT22;6764;53.250;10.410;2023-06-26T11:46:21;24.90;99.90
13389;DHT22;6764;53.250;10.410;2023-06-26T11:48:48;25.10;99.90
13389;DHT22;6764;53.250;10.410;2023-06-26T11:51:17;25.20;99.90
13389;DHT22;6764;53.250;10.410;2023-06-26T11:53:44;25.40;99.90
13389;DHT22;6764;53.250;10.410;2023-06-26T11:56:11;25.30;99.90
13389;DHT22;6764;53.250;10.410;2023-06-26T11:59:01;25.20;99.90
13389;DHT22;6764;53.250;10.410;2023-06-26T12:01:36;25.20;99.90
13389;DHT22;6764;53.250;10.410;2023-06-26T12:04:12;25.40;99.90
13389;DHT22;6764;53.250;10.410;2023-06-26T12:06:40;25.60;99.90
13389;DHT22;6764;53.250;10.410;2023-06-26T12:09:08;25.60;99.90
13389;DHT22;6764;53.250;10.410;2023-06-26T12:11:38;25.90;99.90
13389;DHT22;6764;53.250;10.410;2023-06-26T12:14:06;26.00;99.90
13389;DHT22;6764;53.250;10.410;2023-06-26T12:16:33;26.10;99.90
13389;DHT22;6764;53.250;10.410;2023-06-26T12:19:00;26.30;99.90
13389;DHT22;6764;53.250;10.410;2023-06-26T12:24:08;26.80;99.90
13389;DHT22;6764;53.250;10.410;2023-06-26T12:26:35;26.80;99.90
13389;DHT22;6764;53.250;10.410;2023-06-26T12:29:06;27.00;99.90
13389;DHT22;6764;53.250;10.410;2023-06-26T12:31:33;27.00;99.90
13389;DHT22;6764;53.250;10.410;2023-06-26T12:33:59;27.20;99.90
13389;DHT22;6764;53.250;10.410;2023-06-26T12:36:25;27.40;99.90
13389;DHT22;6764;53.250;10.410;2023-06-26T12:38:53;27.50;99.90
13389;DHT22;6764;53.250;10.410;2023-06-26T12:41:18;27.30;99.90
13389;DHT22;6764;53.250;10.410;2023-06-26T12:43:46;27.40;99.90
13389;DHT22;6764;53.250;10.410;2023-06-26T12:46:11;27.40;99.90
13389;DHT22;6764;53.250;10.410;2023-06-26T12:48:44;27.40;99.90
13389;DHT22;6764;53.250;10.410;2023-06-26T12:51:12;27.10;99.90
13389;DHT22;6764;53.250;10.410;2023-06-26T12:53:38;26.90;99.90
13389;DHT22;6764;53.250;10.410;2023-06-26T12:56:08;26.90;99.90
13389;DHT22;6764;53.250;10.410;2023-06-26T12:58:34;26.70;99.90
13389;DHT22;6764;53.250;10.410;2023-06-26T13:01:05;26.60;99.90
13389;DHT22;6764;53.250;10.410;2023-06-26T13:03:32;26.50;99.90
13389;DHT22;6764;53.250;10.410;2023-06-26T13:05:58;26.60;99.90
13389;DHT22;6764;53.250;10.410;2023-06-26T13:08:24;26.50;99.90
13389;DHT22;6764;53.250;10.410;2023-06-26T13:10:49;26.50;99.90
13389;DHT22;6764;53.250;10.410;2023-06-26T13:13:15;26.60;99.90
13389;DHT22;6764;53.250;10.410;2023-06-26T13:15:40;26.50;99.90
13389;DHT22;6764;53.250;10.410;2023-06-26T13:18:06;26.60;99.90
13389;DHT22;6764;53.250;10.410;2023-06-26T13:20:32;26.80;99.90
13389;DHT22;6764;53.250;10.410;2023-06-26T13:22:57;27.10;99.90
13389;DHT22;6764;53.250;10.410;2023-06-26T13:25:23;27.20;99.90
13389;DHT22;6764;53.250;10.410;2023-06-26T13:27:49;27.20;99.60
13389;DHT22;6764;53.250;10.410;2023-06-26T13:30:14;27.20;99.00
13389;DHT22;6764;53.250;10.410;2023-06-26T13:32:40;27.20;97.90
13389;DHT22;6764;53.250;10.410;2023-06-26T13:35:06;27.40;97.90
13389;DHT22;6764;53.250;10.410;2023-06-26T13:37:32;27.50;97.10
13389;DHT22;6764;53.250;10.410;2023-06-26T13:40:00;27.70;96.20
13389;DHT22;6764;53.250;10.410;2023-06-26T13:42:27;27.80;95.60
13389;DHT22;6764;53.250;10.410;2023-06-26T13:44:53;27.60;95.80
13389;DHT22;6764;53.250;10.410;2023-06-26T13:47:18;27.60;95.70
13389;DHT22;6764;53.250;10.410;2023-06-26T13:49:47;27.70;95.80
13389;DHT22;6764;53.250;10.410;2023-06-26T13:52:13;27.60;94.30
13389;DHT22;6764;53.250;10.410;2023-06-26T13:54:38;27.50;93.90
13389;DHT22;6764;53.250;10.410;2023-06-26T13:57:09;27.40;94.40
13389;DHT22;6764;53.250;10.410;2023-06-26T13:59:37;27.50;93.70
13389;DHT22;6764;53.250;10.410;2023-06-26T14:02:05;27.50;94.00
13389;DHT22;6764;53.250;10.410;2023-06-26T14:04:32;27.50;93.90
13389;DHT22;6764;53.250;10.410;2023-06-26T14:06:57;27.60;94.20
13389;DHT22;6764;53.250;10.410;2023-06-26T14:09:23;27.70;93.20
13389;DHT22;6764;53.250;10.410;2023-06-26T14:11:49;27.50;93.40
13389;DHT22;6764;53.250;10.410;2023-06-26T14:14:14;27.70;92.80
13389;DHT22;6764;53.250;10.410;2023-06-26T14:16:40;27.70;92.80
13389;DHT22;6764;53.250;10.410;2023-06-26T14:19:06;27.90;92.90
13389;DHT22;6764;53.250;10.410;2023-06-26T14:21:31;28.10;92.40
13389;DHT22;6764;53.250;10.410;2023-06-26T14:23:59;28.30;91.90
13389;DHT22;6764;53.250;10.410;2023-06-26T14:26:24;28.20;90.10
13389;DHT22;6764;53.250;10.410;2023-06-26T14:28:50;27.90;90.50
13389;DHT22;6764;53.250;10.410;2023-06-26T14:31:15;27.70;90.00
13389;DHT22;6764;53.250;10.410;2023-06-26T14:33:41;27.60;90.00
13389;DHT22;6764;53.250;10.410;2023-06-26T14:36:07;27.50;90.60
13389;DHT22;6764;53.250;10.410;2023-06-26T14:38:32;27.30;91.00
13389;DHT22;6764;53.250;10.410;2023-06-26T14:40:58;27.10;91.00
13389;DHT22;6764;53.250;10.410;2023-06-26T14:43:23;27.00;92.00
13389;DHT22;6764;53.250;10.410;2023-06-26T14:45:50;26.90;91.10
13389;DHT22;6764;53.250;10.410;2023-06-26T14:48:15;27.00;91.00
13389;DHT22;6764;53.250;10.410;2023-06-26T14:50:41;27.00;90.10
13389;DHT22;6764;53.250;10.410;2023-06-26T14:53:07;26.70;90.80
13389;DHT22;6764;53.250;10.410;2023-06-26T14:55:32;26.80;90.80
13389;DHT22;6764;53.250;10.410;2023-06-26T14:57:58;26.80;90.80
13389;DHT22;6764;53.250;10.410;2023-06-26T15:00:24;26.80;91.00
13389;DHT22;6764;53.250;10.410;2023-06-26T15:02:50;26.80;91.40
13389;DHT22;6764;53.250;10.410;2023-06-26T15:05:19;26.70;90.80
13389;DHT22;6764;53.250;10.410;2023-06-26T15:07:45;26.40;90.60
13389;DHT22;6764;53.250;10.410;2023-06-26T15:10:10;26.50;91.00
13389;DHT22;6764;53.250;10.410;2023-06-26T15:12:36;26.60;90.70
13389;DHT22;6764;53.250;10.410;2023-06-26T15:15:02;26.40;91.50
13389;DHT22;6764;53.250;10.410;2023-06-26T15:17:27;26.30;90.50
13389;DHT22;6764;53.250;10.410;2023-06-26T15:19:53;26.40;90.50
13389;DHT22;6764;53.250;10.410;2023-06-26T15:22:23;26.40;90.60
13389;DHT22;6764;53.250;10.410;2023-06-26T15:24:51;26.70;90.60
13389;DHT22;6764;53.250;10.410;2023-06-26T15:27:16;26.60;90.00
13389;DHT22;6764;53.250;10.410;2023-06-26T15:29:42;26.50;90.00
13389;DHT22;6764;53.250;10.410;2023-06-26T15:32:08;26.40;90.40
13389;DHT22;6764;53.250;10.410;2023-06-26T15:34:33;26.60;90.30
13389;DHT22;6764;53.250;10.410;2023-06-26T15:36:59;26.70;90.30
13389;DHT22;6764;53.250;10.410;2023-06-26T15:39:24;26.80;90.10
13389;DHT22;6764;53.250;10.410;2023-06-26T15:41:50;26.80;89.20
13389;DHT22;6764;53.250;10.410;2023-06-26T15:44:15;26.60;87.40
13389;DHT22;6764;53.250;10.410;2023-06-26T15:46:41;26.50;87.40
13389;DHT22;6764;53.250;10.410;2023-06-26T15:49:07;26.20;88.60
13389;DHT22;6764;53.250;10.410;2023-06-26T15:51:32;25.90;89.00
13389;DHT22;6764;53.250;10.410;2023-06-26T15:54:03;25.70;89.70
13389;DHT22;6764;53.250;10.410;2023-06-26T15:56:28;25.70;89.90
13389;DHT22;6764;53.250;10.410;2023-06-26T15:58:54;25.60;88.40
13389;DHT22;6764;53.250;10.410;2023-06-26T16:01:20;25.50;88.70
13389;DHT22;6764;53.250;10.410;2023-06-26T16:03:46;25.50;87.60
13389;DHT22;6764;53.250;10.410;2023-06-26T16:06:12;25.50;87.30
13389;DHT22;6764;53.250;10.410;2023-06-26T16:08:38;25.70;87.30
13389;DHT22;6764;53.250;10.410;2023-06-26T16:11:06;25.80;86.40
13389;DHT22;6764;53.250;10.410;2023-06-26T16:13:33;25.90;85.20
13389;DHT22;6764;53.250;10.410;2023-06-26T16:15:59;26.00;84.70
13389;DHT22;6764;53.250;10.410;2023-06-26T16:18:25;25.90;84.00
13389;DHT22;6764;53.250;10.410;2023-06-26T16:20:52;26.00;83.90
13389;DHT22;6764;53.250;10.410;2023-06-26T16:23:18;26.00;83.00
13389;DHT22;6764;53.250;10.410;2023-06-26T16:25:44;25.80;83.30
13389;DHT22;6764;53.250;10.410;2023-06-26T16:28:11;25.60;83.50
13389;DHT22;6764;53.250;10.410;2023-06-26T16:30:37;25.30;84.40
13389;DHT22;6764;53.250;10.410;2023-06-26T16:33:02;25.30;85.30
13389;DHT22;6764;53.250;10.410;2023-06-26T16:35:28;25.20;85.40
13389;DHT22;6764;53.250;10.410;2023-06-26T16:38:05;25.10;86.70
13389;DHT22;6764;53.250;10.410;2023-06-26T16:40:35;25.00;85.70
13389;DHT22;6764;53.250;10.410;2023-06-26T16:43:00;24.80;86.30
13389;DHT22;6764;53.250;10.410;2023-06-26T16:45:26;24.70;87.20
13389;DHT22;6764;53.250;10.410;2023-06-26T16:47:52;24.80;87.70
13389;DHT22;6764;53.250;10.410;2023-06-26T16:50:17;24.80;87.20
13389;DHT22;6764;53.250;10.410;2023-06-26T16:52:43;24.80;87.90
13389;DHT22;6764;53.250;10.410;2023-06-26T16:55:10;24.80;87.70
13389;DHT22;6764;53.250;10.410;2023-06-26T16:57:36;24.80;86.80
13389;DHT22;6764;53.250;10.410;2023-06-26T17:00:05;24.60;85.90
13389;DHT22;6764;53.250;10.410;2023-06-26T17:02:32;24.50;86.80
13389;DHT22;6764;53.250;10.410;2023-06-26T17:04:58;24.40;86.90
13389;DHT22;6764;53.250;10.410;2023-06-26T17:07:24;24.50;87.00
13389;DHT22;6764;53.250;10.410;2023-06-26T17:09:49;24.50;85.90
13389;DHT22;6764;53.250;10.410;2023-06-26T17:12:15;24.40;85.20
13389;DHT22;6764;53.250;10.410;2023-06-26T17:14:41;24.30;85.30
13389;DHT22;6764;53.250;10.410;2023-06-26T17:17:07;24.10;85.50
13389;DHT22;6764;53.250;10.410;2023-06-26T17:19:33;24.00;85.10
13389;DHT22;6764;53.250;10.410;2023-06-26T17:22:01;23.90;85.00
13389;DHT22;6764;53.250;10.410;2023-06-26T17:24:27;23.80;85.30
13389;DHT22;6764;53.250;10.410;2023-06-26T17:26:53;23.90;85.80
13389;DHT22;6764;53.250;10.410;2023-06-26T17:29:18;23.70;86.10
13389;DHT22;6764;53.250;10.410;2023-06-26T17:31:44;23.80;86.00
13389;DHT22;6764;53.250;10.410;2023-06-26T17:34:09;23.90;86.10
13389;DHT22;6764;53.250;10.410;2023-06-26T17:36:35;23.90;85.70
13389;DHT22;6764;53.250;10.410;2023-06-26T17:39:02;23.80;86.40
13389;DHT22;6764;53.250;10.410;2023-06-26T17:41:28;23.70;87.30
13389;DHT22;6764;53.250;10.410;2023-06-26T17:43:53;23.80;87.70
13389;DHT22;6764;53.250;10.410;2023-06-26T17:46:19;23.80;88.00
13389;DHT22;6764;53.250;10.410;2023-06-26T17:48:45;23.60;88.70
13389;DHT22;6764;53.250;10.410;2023-06-26T17:51:10;23.70;89.40
13389;DHT22;6764;53.250;10.410;2023-06-26T17:53:36;23.80;89.70
13389;DHT22;6764;53.250;10.410;2023-06-26T17:56:03;23.80;89.90
13389;DHT22;6764;53.250;10.410;2023-06-26T17:58:29;23.90;90.30
13389;DHT22;6764;53.250;10.410;2023-06-26T18:00:55;23.90;90.30
13389;DHT22;6764;53.250;10.410;2023-06-26T18:03:20;23.80;90.70
13389;DHT22;6764;53.250;10.410;2023-06-26T18:05:46;23.70;90.90
13389;DHT22;6764;53.250;10.410;2023-06-26T18:08:11;23.70;91.10
13389;DHT22;6764;53.250;10.410;2023-06-26T18:10:37;23.60;91.20
13389;DHT22;6764;53.250;10.410;2023-06-26T18:13:03;23.70;91.30
13389;DHT22;6764;53.250;10.410;2023-06-26T18:15:29;23.60;91.60
13389;DHT22;6764;53.250;10.410;2023-06-26T18:17:55;23.60;91.60
13389;DHT22;6764;53.250;10.410;2023-06-26T18:20:20;23.60;91.90
13389;DHT22;6764;53.250;10.410;2023-06-26T18:22:46;23.50;92.10
13389;DHT22;6764;53.250;10.410;2023-06-26T18:25:13;23.50;92.00
13389;DHT22;6764;53.250;10.410;2023-06-26T18:27:41;23.50;92.40
13389;DHT22;6764;53.250;10.410;2023-06-26T18:30:07;23.60;92.50
13389;DHT22;6764;53.250;10.410;2023-06-26T18:32:33;23.70;92.30
13389;DHT22;6764;53.250;10.410;2023-06-26T18:34:59;23.60;92.60
13389;DHT22;6764;53.250;10.410;2023-06-26T18:37:24;23.60;92.90
13389;DHT22;6764;53.250;10.410;2023-06-26T18:39:50;23.50;92.90
13389;DHT22;6764;53.250;10.410;2023-06-26T18:42:15;23.50;93.10
13389;DHT22;6764;53.250;10.410;2023-06-26T18:44:41;23.50;93.30
13389;DHT22;6764;53.250;10.410;2023-06-26T18:47:07;23.40;93.50
13389;DHT22;6764;53.250;10.410;2023-06-26T18:49:32;23.40;93.60
13389;DHT22;6764;53.250;10.410;2023-06-26T18:51:58;23.30;93.80
13389;DHT22;6764;53.250;10.410;2023-06-26T18:54:23;23.20;93.90
13389;DHT22;6764;53.250;10.410;2023-06-26T18:56:49;23.20;94.00
13389;DHT22;6764;53.250;10.410;2023-06-26T18:59:15;23.00;94.20
13389;DHT22;6764;53.250;10.410;2023-06-26T19:01:41;22.90;94.70
13389;DHT22;6764;53.250;10.410;2023-06-26T19:04:06;22.80;95.30
13389;DHT22;6764;53.250;10.410;2023-06-26T19:06:32;22.70;95.60
13389;DHT22;6764;53.250;10.410;2023-06-26T19:08:58;22.80;95.90
13389;DHT22;6764;53.250;10.410;2023-06-26T19:11:23;22.50;96.40
13389;DHT22;6764;53.250;10.410;2023-06-26T19:13:49;22.30;97.30
13389;DHT22;6764;53.250;10.410;2023-06-26T19:16:15;22.10;98.10
13389;DHT22;6764;53.250;10.410;2023-06-26T19:18:41;21.90;99.00
13389;DHT22;6764;53.250;10.410;2023-06-26T19:21:06;21.80;99.70
13389;DHT22;6764;53.250;10.410;2023-06-26T19:23:32;21.70;99.90
13389;DHT22;6764;53.250;10.410;2023-06-26T19:25:58;21.70;99.90
13389;DHT22;6764;53.250;10.410;2023-06-26T19:28:25;21.60;99.90
13389;DHT22;6764;53.250;10.410;2023-06-26T19:30:50;21.70;99.90
13389;DHT22;6764;53.250;10.410;2023-06-26T19:33:16;21.60;99.90
13389;DHT22;6764;53.250;10.410;2023-06-26T19:35:42;21.60;99.90
13389;DHT22;6764;53.250;10.410;2023-06-26T19:38:08;21.60;99.90
13389;DHT22;6764;53.250;10.410;2023-06-26T19:40:36;21.50;99.90
13389;DHT22;6764;53.250;10.410;2023-06-26T19:43:02;21.40;99.90
13389;DHT22;6764;53.250;10.410;2023-06-26T19:45:29;21.40;99.90
13389;DHT22;6764;53.250;10.410;2023-06-26T19:47:55;21.30;99.90
13389;DHT22;6764;53.250;10.410;2023-06-26T19:50:20;21.30;99.90
13389;DHT22;6764;53.250;10.410;2023-06-26T19:52:47;21.20;99.90
13389;DHT22;6764;53.250;10.410;2023-06-26T19:55:13;21.20;99.90
13389;DHT22;6764;53.250;10.410;2023-06-26T19:57:39;21.10;99.90
13389;DHT22;6764;53.250;10.410;2023-06-26T20:00:05;21.00;99.90
13389;DHT22;6764;53.250;10.410;2023-06-26T20:02:30;21.00;99.90
13389;DHT22;6764;53.250;10.410;2023-06-26T20:04:56;21.00;99.90
13389;DHT22;6764;53.250;10.410;2023-06-26T20:07:22;21.00;99.90
13389;DHT22;6764;53.250;10.410;2023-06-26T20:09:50;20.90;99.90
13389;DHT22;6764;53.250;10.410;2023-06-26T20:12:16;20.80;99.90
13389;DHT22;6764;53.250;10.410;2023-06-26T20:14:41;20.70;99.90
13389;DHT22;6764;53.250;10.410;2023-06-26T20:17:07;20.60;99.90
13389;DHT22;6764;53.250;10.410;2023-06-26T20:19:33;20.70;99.90
13389;DHT22;6764;53.250;10.410;2023-06-26T20:21:58;20.60;99.90
13389;DHT22;6764;53.250;10.410;2023-06-26T20:24:24;20.60;99.90
13389;DHT22;6764;53.250;10.410;2023-06-26T20:26:50;20.70;99.90
13389;DHT22;6764;53.250;10.410;2023-06-26T20:29:15;20.60;99.90
13389;DHT22;6764;53.250;10.410;2023-06-26T20:31:41;20.60;99.90
13389;DHT22;6764;53.250;10.410;2023-06-26T20:34:07;20.60;99.90
13389;DHT22;6764;53.250;10.410;2023-06-26T20:36:32;20.50;99.90
13389;DHT22;6764;53.250;10.410;2023-06-26T20:38:58;20.40;99.90
13389;DHT22;6764;53.250;10.410;2023-06-26T20:41:24;20.40;99.90
13389;DHT22;6764;53.250;10.410;2023-06-26T20:43:50;20.30;99.90
13389;DHT22;6764;53.250;10.410;2023-06-26T20:46:16;20.30;99.90
13389;DHT22;6764;53.250;10.410;2023-06-26T20:48:46;20.20;99.90
13389;DHT22;6764;53.250;10.410;2023-06-26T20:51:12;20.10;99.90
13389;DHT22;6764;53.250;10.410;2023-06-26T20:53:38;20.00;99.90
13389;DHT22;6764;53.250;10.410;2023-06-26T20:56:04;20.00;99.90
13389;DHT22;6764;53.250;10.410;2023-06-26T20:58:29;20.00;99.90
13389;DHT22;6764;53.250;10.410;2023-06-26T21:00:55;19.80;99.90
13389;DHT22;6764;53.250;10.410;2023-06-26T21:03:21;19.80;99.90
13389;DHT22;6764;53.250;10.410;2023-06-26T21:05:46;19.70;99.90
13389;DHT22;6764;53.250;10.410;2023-06-26T21:08:12;19.70;99.90
13389;DHT22;6764;53.250;10.410;2023-06-26T21:10:38;19.70;99.90
13389;DHT22;6764;53.250;10.410;2023-06-26T21:13:05;19.80;99.90
13389;DHT22;6764;53.250;10.410;2023-06-26T21:15:30;19.90;99.90
13389;DHT22;6764;53.250;10.410;2023-06-26T21:17:56;19.80;99.90
13389;DHT22;6764;53.250;10.410;2023-06-26T21:20:22;19.70;99.90
13389;DHT22;6764;53.250;10.410;2023-06-26T21:22:47;19.60;99.90
13389;DHT22;6764;53.250;10.410;2023-06-26T21:25:13;19.50;99.90
13389;DHT22;6764;53.250;10.410;2023-06-26T21:27:38;19.50;99.90
13389;DHT22;6764;53.250;10.410;2023-06-26T21:30:05;19.40;99.90
13389;DHT22;6764;53.250;10.410;2023-06-26T21:32:32;19.40;99.90
13389;DHT22;6764;53.250;10.410;2023-06-26T21:34:58;19.50;99.90
13389;DHT22;6764;53.250;10.410;2023-06-26T21:37:26;19.60;99.90
13389;DHT22;6764;53.250;10.410;2023-06-26T21:39:52;19.60;99.90
13389;DHT22;6764;53.250;10.410;2023-06-26T21:42:17;19.70;99.90
13389;DHT22;6764;53.250;10.410;2023-06-26T21:44:43;19.80;99.90
13389;DHT22;6764;53.250;10.410;2023-06-26T21:47:08;19.80;99.90
13389;DHT22;6764;53.250;10.410;2023-06-26T21:49:34;19.80;99.90
13389;DHT22;6764;53.250;10.410;2023-06-26T21:52:00;19.80;99.90
13389;DHT22;6764;53.250;10.410;2023-06-26T21:54:25;19.80;99.90
13389;DHT22;6764;53.250;10.410;2023-06-26T21:56:51;19.70;99.90
13389;DHT22;6764;53.250;10.410;2023-06-26T21:59:16;19.70;99.90
13389;DHT22;6764;53.250;10.410;2023-06-26T22:01:42;19.70;99.90
13389;DHT22;6764;53.250;10.410;2023-06-26T22:04:08;19.70;99.90
13389;DHT22;6764;53.250;10.410;2023-06-26T22:06:33;19.60;99.90
13389;DHT22;6764;53.250;10.410;2023-06-26T22:08:59;19.60;99.90
13389;DHT22;6764;53.250;10.410;2023-06-26T22:11:24;19.60;99.90
13389;DHT22;6764;53.250;10.410;2023-06-26T22:13:50;19.60;99.90
13389;DHT22;6764;53.250;10.410;2023-06-26T22:16:16;19.50;99.90
13389;DHT22;6764;53.250;10.410;2023-06-26T22:18:41;19.50;99.90
13389;DHT22;6764;53.250;10.410;2023-06-26T22:21:07;19.50;99.90
13389;DHT22;6764;53.250;10.410;2023-06-26T22:23:32;19.50;99.90
13389;DHT22;6764;53.250;10.410;2023-06-26T22:25:58;19.60;99.90
13389;DHT22;6764;53.250;10.410;2023-06-26T22:28:23;19.50;99.90
13389;DHT22;6764;53.250;10.410;2023-06-26T22:30:49;19.50;99.90
13389;DHT22;6764;53.250;10.410;2023-06-26T22:33:15;19.40;99.90
13389;DHT22;6764;53.250;10.410;2023-06-26T22:35:40;19.40;99.90
13389;DHT22;6764;53.250;10.410;2023-06-26T22:38:06;19.40;99.90
13389;DHT22;6764;53.250;10.410;2023-06-26T22:40:31;19.30;99.90
13389;DHT22;6764;53.250;10.410;2023-06-26T22:42:57;19.30;99.90
13389;DHT22;6764;53.250;10.410;2023-06-26T22:45:23;19.40;99.90
13389;DHT22;6764;53.250;10.410;2023-06-26T22:47:49;19.30;99.90
13389;DHT22;6764;53.250;10.410;2023-06-26T22:50:14;19.20;99.90
13389;DHT22;6764;53.250;10.410;2023-06-26T22:52:40;19.20;99.90
13389;DHT22;6764;53.250;10.410;2023-06-26T22:55:06;19.10;99.90
13389;DHT22;6764;53.250;10.410;2023-06-26T22:57:31;19.00;99.90
13389;DHT22;6764;53.250;10.410;2023-06-26T22:59:57;19.00;99.90
13389;DHT22;6764;53.250;10.410;2023-06-26T23:02:23;18.90;99.90
13389;DHT22;6764;53.250;10.410;2023-06-26T23:04:49;19.00;99.90
13389;DHT22;6764;53.250;10.410;2023-06-26T23:07:14;19.00;99.90
13389;DHT22;6764;53.250;10.410;2023-06-26T23:09:41;18.80;99.90
13389;DHT22;6764;53.250;10.410;2023-06-26T23:12:07;18.80;99.90
13389;DHT22;6764;53.250;10.410;2023-06-26T23:14:34;18.70;99.90
13389;DHT22;6764;53.250;10.410;2023-06-26T23:16:59;18.60;99.90
13389;DHT22;6764;53.250;10.410;2023-06-26T23:19:33;18.70;99.90
13389;DHT22;6764;53.250;10.410;2023-06-26T23:21:59;18.70;99.90
13389;DHT22;6764;53.250;10.410;2023-06-26T23:24:29;18.70;99.90
13389;DHT22;6764;53.250;10.410;2023-06-26T23:27:00;18.60;99.90
13389;DHT22;6764;53.250;10.410;2023-06-26T23:29:25;18.50;99.90
13389;DHT22;6764;53.250;10.410;2023-06-26T23:31:51;18.50;99.90
13389;DHT22;6764;53.250;10.410;2023-06-26T23:34:17;18.50;99.90
13389;DHT22;6764;53.250;10.410;2023-06-26T23:36:47;18.50;99.90
13389;DHT22;6764;53.250;10.410;2023-06-26T23:39:17;18.50;99.90
13389;DHT22;6764;53.250;10.410;2023-06-26T23:41:43;18.50;99.90
13389;DHT22;6764;53.250;10.410;2023-06-26T23:44:10;18.50;99.90
13389;DHT22;6764;53.250;10.410;2023-06-26T23:46:38;18.40;99.90
13389;DHT22;6764;53.250;10.410;2023-06-26T23:49:06;18.40;99.90
13389;DHT22;6764;53.250;10.410;2023-06-26T23:51:32;18.40;99.90
13389;DHT22;6764;53.250;10.410;2023-06-26T23:53:58;18.40;99.90
13389;DHT22;6764;53.250;10.410;2023-06-26T23:56:23;18.50;99.90
13389;DHT22;6764;53.250;10.410;2023-06-26T23:58:49;18.40;99.90
